McSherrystown, Pennsylvania
Current Conditions -  °F | °C
As of 10:53 AM on Thursday 23 Oct 2014 (Local Time) from KTHV Reporting Station
Overcast Overcast  
Wind Chill: 56°   Ceiling: 3200
Heat Index: 56°   Visibility: 10mi
Dew Point: 44°   Wind: 17mph
Humidity: 64%   Direction: 330°NNW
Pressure: 29.88"   Gusts: 25mph
Location:  39.81°N, 77.01°W
Report Text: KTHV 231453Z AUTO 33015G22KT 10SM OVC032 13/07 A2988 RMK AO2 SLP121 T01330067 50001
Loading
Personal Weather Stations






























Interactive Weather Map
Tropical Storm Tracking
New forecast layout! Learn more

10-Day Weather Forecast

Advertisements
Track Severe Weather on mobile